Time;durP1;ratioP1;P1;durP2;ratioP2;P2;SDS_P1;SDS_P2;PMS_P1;PMS_P2;Temp;Humidity;BMP_temperature;BMP_pressure;BME280_temperature;BME280_humidity;BME280_pressure;Samples;Min_cycle;Max_cycle;Signal;HPM_P1;HPM_P2
2022/11/04 00:00:54;;;;;;;39.97;17.17;;;;;;;9.02;86.86;98524.22;8470774;28;20048;-81
2022/11/04 00:04:58;;;;;;;44.47;17.80;;;;;;;9.01;86.97;98515.34;8461347;28;20622;-78
2022/11/04 00:08:59;;;;;;;39.55;17.50;;;;;;;8.99;87.35;98522.16;8460968;28;20048;-80
2022/11/04 00:13:00;;;;;;;41.28;17.52;;;;;;;8.96;87.34;98506.59;8463596;28;20130;-79
2022/11/04 00:30:01;;;;;;;40.63;17.02;;;;;;;9.01;87.71;98487.63;8499420;27;20571;-80
2022/11/04 00:34:02;;;;;;;37.97;16.83;;;;;;;9.03;87.68;98490.78;8502979;27;20054;-79
2022/11/04 00:38:03;;;;;;;45.33;17.58;;;;;;;9.04;87.85;98476.22;8511928;27;20133;-78
2022/11/04 00:42:04;;;;;;;37.50;16.25;;;;;;;9.02;88.01;98483.81;8510208;27;20484;-79
2022/11/04 00:46:06;;;;;;;42.13;17.40;;;;;;;9.07;88.09;98480.97;8469916;27;20055;-79
2022/11/04 00:50:11;;;;;;;41.55;17.10;;;;;;;9.11;87.99;98476.53;8502593;27;20745;-78
2022/11/04 00:54:14;;;;;;;40.28;16.88;;;;;;;9.14;88.01;98459.78;8515381;27;20047;-79
2022/11/04 00:58:15;;;;;;;38.80;16.45;;;;;;;9.12;88.10;98456.59;8498334;27;20069;-78
2022/11/04 01:02:16;;;;;;;35.88;16.83;;;;;;;9.13;88.12;98455.47;8499107;27;20081;-77
2022/11/04 01:06:18;;;;;;;39.40;17.17;;;;;;;9.09;88.28;98430.28;8503813;27;20395;-78
2022/11/04 01:10:19;;;;;;;40.13;17.05;;;;;;;9.10;88.63;98434.53;8518916;27;20051;-79
2022/11/04 01:14:20;;;;;;;35.47;16.13;;;;;;;9.10;88.53;98426.47;8506565;27;20136;-78
2022/11/04 01:18:21;;;;;;;36.55;16.48;;;;;;;9.07;88.54;98427.09;8507131;27;20073;-79
2022/11/04 01:22:22;;;;;;;37.25;17.20;;;;;;;9.03;88.91;98426.16;8511040;27;20137;-78
2022/11/04 01:26:24;;;;;;;35.17;15.27;;;;;;;9.03;89.19;98418.06;8499698;27;20099;-78
2022/11/04 01:30:25;;;;;;;31.02;16.00;;;;;;;9.03;89.40;98420.78;8497571;27;20051;-78
2022/11/04 01:34:26;;;;;;;35.78;15.40;;;;;;;9.02;89.63;98413.78;8501517;27;20047;-79
2022/11/04 01:38:28;;;;;;;28.83;15.20;;;;;;;9.02;89.83;98403.03;8447155;27;20070;-79
2022/11/04 01:42:29;;;;;;;37.63;16.45;;;;;;;8.99;89.85;98403.66;8503729;27;20061;-79
2022/11/04 01:46:33;;;;;;;33.90;15.85;;;;;;;8.96;90.36;98393.50;8510969;27;20043;-78
2022/11/04 01:50:35;;;;;;;32.45;15.35;;;;;;;8.95;90.23;98387.31;8517008;27;20095;-78
2022/11/04 01:54:40;;;;;;;33.55;14.77;;;;;;;8.89;90.64;98383.97;8500507;27;20043;-78
2022/11/04 01:58:50;;;;;;;34.83;14.90;;;;;;;8.90;90.83;98380.19;8498241;27;20104;-78
2022/11/04 02:03:06;;;;;;;32.50;15.68;;;;;;;8.87;90.83;98380.03;8501111;27;20100;-80
2022/11/04 02:07:09;;;;;;;35.22;15.27;;;;;;;8.81;91.27;98382.09;8504449;27;20471;-79
2022/11/04 02:12:48;;;;;;;39.05;15.45;;;;;;;8.79;91.21;98373.53;8503939;27;20038;-78
2022/11/04 02:15:55;;;;;;;34.53;15.45;;;;;;;8.76;91.59;98363.41;8504058;27;20034;-79
2022/11/04 02:20:17;;;;;;;37.22;16.02;;;;;;;8.76;91.85;98360.69;8518565;27;20043;-78
2022/11/04 02:24:44;;;;;;;39.15;15.75;;;;;;;8.77;91.55;98364.97;8511223;27;20042;-79
2022/11/04 02:29:08;;;;;;;35.42;16.40;;;;;;;8.76;91.63;98363.41;8497731;27;20123;-77
2022/11/04 02:33:17;;;;;;;35.08;15.50;;;;;;;8.75;91.75;98372.56;8470550;27;20062;-80
2022/11/04 02:37:26;;;;;;;32.28;16.13;;;;;;;8.78;91.84;98366.53;8510525;27;20527;-78
2022/11/04 02:41:47;;;;;;;32.58;15.98;;;;;;;8.79;91.65;98370.84;8489853;27;20087;-78
2022/11/04 02:45:56;;;;;;;38.03;15.82;;;;;;;8.79;91.55;98357.38;8488131;27;20043;-78
2022/11/04 02:50:04;;;;;;;35.42;15.52;;;;;;;8.79;91.64;98351.97;8508182;27;20047;-78
2022/11/04 02:54:08;;;;;;;;;;;;;;;8.75;92.01;98351.03;8478541;27;20054;-79
2022/11/04 02:58:19;;;;;;;34.28;16.17;;;;;;;8.71;92.32;98350.09;8502894;27;20361;-79
2022/11/04 03:02:27;;;;;;;33.60;15.93;;;;;;;8.70;92.45;98348.50;8479036;27;20073;-77
2022/11/04 03:06:29;;;;;;;33.08;15.07;;;;;;;8.68;92.80;98342.63;8490057;27;20069;-80
2022/11/04 03:10:35;;;;;;;31.15;14.95;;;;;;;8.66;92.90;98342.16;8512367;27;20059;-79
2022/11/04 03:14:42;;;;;;;33.42;16.30;;;;;;;8.64;93.23;98333.59;8490123;27;20104;-79
2022/11/04 03:18:58;;;;;;;34.78;15.80;;;;;;;8.64;93.33;98338.97;8488117;28;20498;-81
2022/11/04 03:22:59;;;;;;;33.13;15.65;;;;;;;8.62;93.44;98345.78;8510013;27;20084;-81
2022/11/04 03:27:09;;;;;;;30.40;15.55;;;;;;;8.61;93.45;98345.00;8516210;27;20517;-79
2022/11/04 03:31:25;;;;;;;32.85;15.23;;;;;;;8.60;93.52;98338.03;8474787;27;20062;-79
2022/11/04 03:35:26;;;;;;;33.42;15.82;;;;;;;8.58;93.51;98340.22;8503060;27;20051;-81
2022/11/04 03:39:27;;;;;;;34.50;15.38;;;;;;;8.56;93.60;98337.09;8468843;27;20139;-79
2022/11/04 03:43:29;;;;;;;31.98;15.35;;;;;;;8.54;93.77;98333.91;8491846;27;20482;-80
2022/11/04 03:47:30;;;;;;;31.50;15.32;;;;;;;8.54;93.50;98333.91;8483685;27;20184;-79
2022/11/04 03:51:31;;;;;;;33.92;15.90;;;;;;;8.56;93.79;98331.69;8483356;27;20057;-78
2022/11/04 03:56:04;;;;;;;34.63;16.70;;;;;;;8.55;93.69;98319.34;8506535;27;20055;-78
2022/11/04 04:00:14;;;;;;;37.70;16.50;;;;;;;8.52;93.86;98314.56;8386440;28;20045;-78
2022/11/04 04:04:29;;;;;;;34.65;15.63;;;;;;;8.54;94.03;98316.97;8362581;28;20154;-80
2022/11/04 04:08:51;;;;;;;41.75;16.75;;;;;;;8.57;94.01;98314.41;8332863;28;20087;-79
2022/11/04 04:12:56;;;;;;;33.47;15.70;;;;;;;8.63;94.25;98321.25;8388539;28;20076;-79
2022/11/04 04:16:58;;;;;;;31.83;15.48;;;;;;;8.70;94.28;98316.19;8380026;28;20041;-78
2022/11/04 04:21:01;;;;;;;35.55;15.85;;;;;;;8.76;94.36;98309.56;8375870;28;20049;-78
2022/11/04 04:29:26;;;;;;;34.00;16.75;;;;;;;8.78;94.45;98307.31;8372686;28;20053;-78
2022/11/04 04:33:28;;;;;;;39.78;16.92;;;;;;;8.83;94.88;98299.09;8381571;28;20730;-79
2022/11/04 04:37:28;;;;;;;35.88;15.35;;;;;;;8.87;94.67;98310.03;8469163;27;20055;-80
2022/11/04 04:45:54;;;;;;;35.55;16.30;;;;;;;8.94;95.02;98288.00;8489830;27;20047;-79
2022/11/04 04:49:57;;;;;;;36.72;16.75;;;;;;;9.00;94.98;98281.34;8508578;27;20054;-79
2022/11/04 04:53:58;;;;;;;36.17;17.00;;;;;;;9.03;94.80;98286.09;8509305;27;20111;-78
2022/11/04 04:57:59;;;;;;;35.70;17.17;;;;;;;9.08;94.98;98280.56;8500552;27;20042;-77
2022/11/04 05:02:00;;;;;;;36.22;17.80;;;;;;;9.12;94.85;98273.41;8499160;27;20051;-80
2022/11/04 05:06:01;;;;;;;34.72;17.02;;;;;;;9.13;94.46;98272.31;8497574;27;20756;-79
2022/11/04 05:10:02;;;;;;;33.45;17.23;;;;;;;9.10;94.82;98278.31;8510063;27;20059;-80
2022/11/04 05:14:03;;;;;;;36.08;17.05;;;;;;;9.09;94.65;98272.16;8509335;27;20035;-78
2022/11/04 05:18:04;;;;;;;35.72;16.88;;;;;;;9.11;94.63;98271.84;8497842;27;20134;-78
2022/11/04 05:22:06;;;;;;;39.95;16.15;;;;;;;9.07;94.96;98270.88;8497793;27;20047;-78
2022/11/04 05:26:06;;;;;;;39.20;17.73;;;;;;;9.04;95.18;98282.31;8497948;27;20465;-80
2022/11/04 05:30:08;;;;;;;37.58;17.92;;;;;;;9.00;95.30;98265.19;8499820;27;20059;-80
2022/11/04 05:34:12;;;;;;;40.53;18.08;;;;;;;8.94;95.77;98271.84;8500111;27;20141;-80
2022/11/04 05:38:13;;;;;;;36.70;16.92;;;;;;;8.92;95.67;98274.06;8524651;27;20053;-81
2022/11/04 05:42:14;;;;;;;35.35;17.15;;;;;;;8.86;96.38;98266.16;8518937;27;20475;-80
2022/11/04 05:46:15;;;;;;;36.80;18.17;;;;;;;8.85;96.20;98264.56;8484546;27;20051;-79
2022/11/04 05:50:16;;;;;;;40.50;18.27;;;;;;;8.86;96.53;98270.75;8500725;27;20042;-79
2022/11/04 05:54:17;;;;;;;41.63;19.10;;;;;;;8.85;96.53;98267.25;8520339;27;20047;-79
2022/11/04 05:58:18;;;;;;;41.25;17.67;;;;;;;8.85;96.43;98253.81;8527279;27;20051;-81
2022/11/04 06:02:19;;;;;;;36.95;17.48;;;;;;;8.85;96.22;98253.81;8527212;27;20536;-79
2022/11/04 06:06:21;;;;;;;35.33;17.17;;;;;;;8.85;96.10;98251.09;8471955;27;20122;-80
2022/11/04 06:10:23;;;;;;;46.88;19.80;;;;;;;8.85;96.42;98259.19;8527981;27;20047;-81
2022/11/04 06:14:24;;;;;;;39.40;18.17;;;;;;;8.86;96.20;98260.78;8505849;27;20039;-81
2022/11/04 06:18:25;;;;;;;38.65;17.95;;;;;;;8.87;96.17;98256.19;8521687;27;20047;-79
2022/11/04 06:22:26;;;;;;;33.97;18.13;;;;;;;8.89;96.22;98265.50;8525963;27;20456;-81
2022/11/04 06:26:29;;;;;;;43.35;18.30;;;;;;;8.95;96.22;98273.44;8523740;27;20035;-81
2022/11/04 06:30:30;;;;;;;35.20;18.42;;;;;;;8.94;95.98;98267.25;8518559;27;20412;-78
2022/11/04 06:34:31;;;;;;;51.85;21.50;;;;;;;8.98;96.15;98272.81;8518161;27;20100;-80
2022/11/04 06:38:35;;;;;;;44.55;21.00;;;;;;;9.04;96.15;98276.94;8484517;27;20071;-81
2022/11/04 06:42:38;;;;;;;43.13;20.10;;;;;;;9.14;95.83;98271.22;8463224;27;20127;-80
2022/11/04 06:46:41;;;;;;;37.20;19.38;;;;;;;9.16;95.54;98279.75;8515830;27;20118;-81
2022/11/04 06:50:42;;;;;;;39.63;19.15;;;;;;;9.18;95.64;98285.63;8524222;27;20043;-79
2022/11/04 06:54:43;;;;;;;40.33;20.05;;;;;;;9.22;95.43;98278.47;8495989;27;20059;-81
2022/11/04 06:58:47;;;;;;;38.42;17.80;;;;;;;9.27;95.18;98281.78;8517183;27;20428;-80
2022/11/04 07:02:48;;;;;;;32.33;17.42;;;;;;;9.36;94.99;98279.06;8523775;27;20073;-80
2022/11/04 07:06:50;;;;;;;38.75;18.83;;;;;;;9.43;94.48;98274.00;8505506;27;20051;-79
2022/11/04 07:10:54;;;;;;;40.55;18.13;;;;;;;9.53;94.36;98278.25;8521415;27;20072;-79
2022/11/04 07:14:55;;;;;;;33.95;18.42;;;;;;;9.64;93.92;98280.28;8526936;27;20055;-81
2022/11/04 07:18:56;;;;;;;41.75;17.83;;;;;;;9.73;93.56;98289.13;8503542;27;20046;-81
2022/11/04 07:22:57;;;;;;;45.80;20.90;;;;;;;9.86;93.18;98281.16;8520702;27;20051;-80
2022/11/04 07:26:58;;;;;;;45.35;20.13;;;;;;;9.98;92.70;98278.56;8529428;27;20089;-81
2022/11/04 07:31:01;;;;;;;38.72;19.25;;;;;;;10.08;92.12;98283.59;8529221;27;20388;-81
2022/11/04 07:35:02;;;;;;;48.28;20.35;;;;;;;10.20;91.68;98294.53;8523183;27;20133;-81
2022/11/04 07:39:05;;;;;;;62.58;28.38;;;;;;;10.27;91.39;98286.69;8532022;27;20046;-81
2022/11/04 07:43:06;;;;;;;86.65;42.80;;;;;;;10.30;90.87;98296.84;8523283;27;20137;-80
2022/11/04 07:47:07;;;;;;;87.28;41.30;;;;;;;10.33;90.72;98290.78;8535092;27;20058;-79
2022/11/04 07:51:11;;;;;;;66.93;30.50;;;;;;;10.38;90.66;98298.69;8526136;27;20130;-80
2022/11/04 07:55:17;;;;;;;65.35;28.02;;;;;;;10.38;90.61;98293.28;8500635;27;20054;-80
2022/11/04 07:59:18;;;;;;;50.20;22.02;;;;;;;10.43;90.30;98293.09;8504316;27;20054;-81
2022/11/04 08:03:19;;;;;;;56.97;26.85;;;;;;;10.44;90.27;98297.38;8508968;27;20047;-80
2022/11/04 08:07:20;;;;;;;61.30;28.58;;;;;;;10.51;90.13;98296.88;8501975;27;20115;-82
2022/11/04 08:11:24;;;;;;;56.28;26.77;;;;;;;10.61;89.85;98301.09;8515138;27;20051;-82
2022/11/04 08:15:24;;;;;;;48.95;21.98;;;;;;;10.64;89.81;98295.81;8470703;27;20448;-82
2022/11/04 08:19:26;;;;;;;51.83;27.00;;;;;;;10.69;89.69;98297.53;8491484;27;20057;-83
2022/11/04 08:23:27;;;;;;;84.65;39.08;;;;;;;10.66;89.90;98292.81;8493998;27;20070;-80
2022/11/04 08:27:28;;;;;;;92.88;39.25;;;;;;;10.63;89.78;98294.25;8506880;27;20042;-81
2022/11/04 08:31:30;;;;;;;65.63;29.40;;;;;;;10.67;89.98;98299.78;8511387;27;20560;-81
2022/11/04 08:35:32;;;;;;;51.90;22.05;;;;;;;10.68;89.90;98291.34;8509801;27;20039;-81
2022/11/04 08:39:33;;;;;;;42.58;20.10;;;;;;;10.67;90.25;98283.59;8503433;27;20047;-81
2022/11/04 08:43:34;;;;;;;36.08;18.50;;;;;;;10.66;90.34;98271.19;8516766;27;20067;-80
2022/11/04 08:47:37;;;;;;;39.22;20.25;;;;;;;10.73;90.25;98266.88;8519171;27;20057;-82
2022/11/04 08:51:42;;;;;;;42.70;19.85;;;;;;;10.85;89.92;98271.53;8514635;27;20054;-80
2022/11/04 08:55:43;;;;;;;49.42;19.23;;;;;;;10.99;89.82;98263.94;8498979;27;20492;-81
2022/11/04 08:59:44;;;;;;;33.95;18.27;;;;;;;11.21;89.47;98255.44;8498888;27;20153;-81
2022/11/04 09:03:45;;;;;;;34.00;16.83;;;;;;;11.43;88.97;98267.78;8498406;27;20544;-81
2022/11/04 09:07:46;;;;;;;34.72;17.73;;;;;;;11.57;88.42;98262.09;8498699;27;20058;-80
2022/11/04 09:11:47;;;;;;;35.88;17.48;;;;;;;11.59;87.95;98255.22;8499971;27;20071;-82
2022/11/04 09:15:48;;;;;;;47.90;20.85;;;;;;;11.65;87.87;98247.69;8502040;27;20046;-82
2022/11/04 09:19:52;;;;;;;42.20;20.35;;;;;;;11.77;87.64;98239.63;8477466;27;20047;-81
2022/11/04 09:23:54;;;;;;;38.70;19.45;;;;;;;11.89;87.46;98231.50;8478681;27;20039;-81
2022/11/04 09:27:55;;;;;;;48.58;22.75;;;;;;;12.05;86.72;98228.91;8528576;27;20050;-83
2022/11/04 09:31:56;;;;;;;48.67;22.58;;;;;;;12.30;86.24;98229.69;8530878;27;20568;-82
2022/11/04 09:35:57;;;;;;;58.45;26.45;;;;;;;12.42;85.65;98237.78;8526469;27;20051;-81
2022/11/04 09:39:58;;;;;;;52.00;22.80;;;;;;;12.55;85.19;98231.19;8534035;27;20108;-81
2022/11/04 09:44:07;;;;;;;50.63;23.05;;;;;;;12.62;84.93;98231.41;8525810;27;20050;-81
2022/11/04 09:48:27;;;;;;;44.78;21.20;;;;;;;12.66;84.21;98232.31;8522276;27;20054;-81
2022/11/04 09:52:36;;;;;;;34.40;18.42;;;;;;;12.87;83.76;98238.31;8520078;27;20047;-81
2022/11/04 09:56:37;;;;;;;;;;;;;;;12.95;83.68;98245.53;8507252;27;20142;-82
2022/11/04 10:00:39;;;;;;;36.97;19.10;;;;;;;12.89;83.53;98230.66;8501435;27;19919;-82
2022/11/04 10:05:01;;;;;;;35.95;18.52;;;;;;;12.86;83.94;98231.31;8486410;27;20043;-82
2022/11/04 10:09:12;;;;;;;42.13;20.95;;;;;;;12.88;84.11;98245.34;8519159;27;20103;-82
2022/11/04 10:13:43;;;;;;;34.42;20.00;;;;;;;12.74;84.50;98233.31;8519646;27;20984;-82
2022/11/04 10:18:11;;;;;;;33.95;19.90;;;;;;;12.76;84.70;98231.81;8498516;27;20430;-73
2022/11/04 10:22:22;;;;;;;37.80;19.95;;;;;;;12.69;84.62;98237.03;8498200;27;20044;-74
2022/11/04 10:26:27;;;;;;;35.63;21.45;;;;;;;12.74;84.24;98225.97;8498556;27;20119;-74
2022/11/04 10:30:30;;;;;;;35.83;20.55;;;;;;;12.92;83.96;98229.94;8479493;27;20077;-73
2022/11/04 10:34:53;;;;;;;39.75;21.88;;;;;;;13.05;83.47;98207.09;8497637;27;20044;-73
2022/11/04 10:38:55;;;;;;;38.28;20.77;;;;;;;13.20;83.28;98202.88;8496805;27;20048;-74
2022/11/04 10:42:58;;;;;;;35.58;20.52;;;;;;;13.31;83.07;98214.00;8484362;27;20589;-74
2022/11/04 10:47:22;;;;;;;39.53;21.58;;;;;;;13.27;82.54;98202.28;8484391;27;20035;-74
2022/11/04 10:51:23;;;;;;;38.25;21.88;;;;;;;13.23;82.61;98206.78;8495911;27;20043;-73
2022/11/04 10:55:29;;;;;;;37.75;20.92;;;;;;;13.21;82.52;98215.28;8448401;27;20135;-74
2022/11/04 10:59:54;;;;;;;42.60;21.83;;;;;;;13.18;82.88;98209.75;8453322;27;20132;-74
2022/11/04 11:03:56;;;;;;;38.88;21.80;;;;;;;13.05;82.87;98217.94;8487832;27;20040;-74
2022/11/04 11:07:58;;;;;;;39.75;22.48;;;;;;;12.93;83.05;98209.84;8396296;28;20491;-74
2022/11/04 11:12:01;;;;;;;36.83;22.20;;;;;;;12.83;83.10;98210.34;8376039;28;20583;-74
2022/11/04 11:16:08;;;;;;;41.70;21.52;;;;;;;12.74;83.39;98201.59;8344821;28;20053;-74
2022/11/04 11:20:13;;;;;;;42.20;21.65;;;;;;;12.69;83.74;98201.81;8325167;28;20048;-73
2022/11/04 11:24:25;;;;;;;37.47;20.35;;;;;;;12.69;84.06;98204.50;8357204;28;20049;-74
2022/11/04 11:28:26;;;;;;;40.92;22.45;;;;;;;12.59;84.46;98196.88;8334424;28;20045;-74
2022/11/04 11:32:34;;;;;;;42.80;21.55;;;;;;;12.58;84.80;98203.44;8336034;28;20147;-76
2022/11/04 11:36:37;;;;;;;45.33;22.95;;;;;;;12.52;85.01;98204.81;8319687;28;20042;-75
2022/11/04 11:40:39;;;;;;;44.75;23.77;;;;;;;12.49;85.24;98202.78;8319938;28;20050;-75
2022/11/04 11:44:52;;;;;;;35.72;19.67;;;;;;;12.46;84.91;98190.72;8379784;28;20052;-74
2022/11/04 11:48:59;;;;;;;35.17;19.63;;;;;;;12.52;85.02;98188.56;8416087;28;20047;-74
2022/11/04 11:53:17;;;;;;;37.17;19.33;;;;;;;12.58;84.83;98187.19;8427203;28;20117;-75
2022/11/04 11:57:28;;;;;;;39.10;21.00;;;;;;;12.60;84.58;98185.69;8392353;28;20052;-74
2022/11/04 12:01:41;;;;;;;42.47;21.30;;;;;;;12.67;84.36;98190.53;8427406;28;20059;-74
2022/11/04 12:06:06;;;;;;;73.65;31.35;;;;;;;12.72;84.39;98193.00;8434876;28;20477;-75
2022/11/04 12:10:32;;;;;;;42.30;21.27;;;;;;;12.95;83.79;98182.41;8422969;28;20044;-75
2022/11/04 12:14:45;;;;;;;32.78;18.92;;;;;;;12.98;83.04;98190.63;8432520;28;20363;-74
2022/11/04 12:19:25;;;;;;;39.15;20.33;;;;;;;12.99;82.60;98186.00;8433132;28;20048;-75
2022/11/04 12:23:30;;;;;;;;;;;;;;;13.04;82.62;98189.25;8432294;28;20065;-74
2022/11/04 12:28:11;;;;;;;40.17;19.77;;;;;;;13.08;82.11;98179.28;8431032;28;19927;-74
2022/11/04 12:32:17;;;;;;;39.17;19.33;;;;;;;13.21;81.96;98188.19;8429756;28;20052;-75
2022/11/04 12:36:40;;;;;;;37.50;19.50;;;;;;;13.34;81.64;98191.59;8438709;28;20363;-74
2022/11/04 12:40:52;;;;;;;38.80;20.50;;;;;;;13.47;81.43;98184.97;8431693;28;20044;-74
2022/11/04 12:45:20;;;;;;;39.05;20.15;;;;;;;13.49;81.17;98193.53;8430173;28;20048;-75
2022/11/04 12:49:32;;;;;;;37.08;19.17;;;;;;;13.47;81.35;98191.19;8440794;28;20485;-74
2022/11/04 12:53:40;;;;;;;51.67;29.00;;;;;;;13.44;81.58;98191.84;8465291;28;20056;-74
2022/11/04 12:57:47;;;;;;;41.70;19.88;;;;;;;13.31;81.34;98197.72;8459177;27;20494;-74
2022/11/04 13:01:56;;;;;;;45.33;22.70;;;;;;;13.21;82.13;98192.81;8431375;28;20048;-74
2022/11/04 13:06:16;;;;;;;40.42;19.80;;;;;;;13.10;82.68;98189.78;8452084;28;20051;-75
2022/11/04 13:10:40;;;;;;;39.53;19.98;;;;;;;12.92;82.99;98186.59;8413848;28;20056;-75
2022/11/04 13:14:50;;;;;;;41.38;20.00;;;;;;;12.81;83.57;98185.50;8250654;28;20420;-74
2022/11/04 13:18:51;;;;;;;38.08;20.27;;;;;;;12.73;83.77;98178.34;8264273;28;20440;-75
2022/11/04 13:22:53;;;;;;;39.22;18.15;;;;;;;12.70;84.26;98189.84;8293595;28;20062;-76
2022/11/04 13:26:59;;;;;;;42.83;19.08;;;;;;;12.72;84.45;98203.84;8278692;28;20415;-75
2022/11/04 13:31:26;;;;;;;37.88;20.30;;;;;;;12.70;84.57;98195.25;8294368;28;20045;-75
2022/11/04 13:35:50;;;;;;;40.38;20.45;;;;;;;12.68;84.62;98192.13;8175295;28;20063;-74
2022/11/04 13:40:06;;;;;;;39.60;20.38;;;;;;;12.65;84.94;98203.63;8207941;28;20417;-75
2022/11/04 13:44:26;;;;;;;42.45;20.52;;;;;;;12.65;85.07;98204.41;8213367;28;20101;-74
2022/11/04 13:48:30;;;;;;;39.28;20.90;;;;;;;12.65;85.28;98198.22;8192682;28;20122;-78
2022/11/04 13:52:32;;;;;;;37.42;21.02;;;;;;;12.56;85.46;98200.28;8329844;28;20130;-75
2022/11/04 13:56:36;;;;;;;48.53;21.38;;;;;;;12.50;85.69;98201.66;8340345;28;20159;-76
2022/11/04 14:00:38;;;;;;;40.60;20.52;;;;;;;12.49;85.72;98200.84;8357006;28;20057;-77
2022/11/04 14:04:41;;;;;;;40.28;21.05;;;;;;;12.50;85.74;98196.22;8336506;28;20053;-75
2022/11/04 14:09:27;;;;;;;36.47;20.13;;;;;;;12.49;86.11;98200.84;8339061;28;20487;-75
2022/11/04 14:13:36;;;;;;;39.53;20.77;;;;;;;12.43;86.28;98206.84;8225019;28;20120;-75
2022/11/04 14:17:37;;;;;;;32.90;19.50;;;;;;;12.36;86.51;98201.25;8289343;28;20062;-77
2022/11/04 14:22:10;;;;;;;46.72;20.90;;;;;;;12.33;86.71;98201.91;8289823;28;20042;-76
2022/11/04 14:26:26;;;;;;;42.92;23.80;;;;;;;12.31;86.87;98204.19;8274866;28;20049;-74
2022/11/04 14:30:28;;;;;;;44.95;22.40;;;;;;;12.25;87.20;98209.84;8262285;28;20120;-74
2022/11/04 14:34:32;;;;;;;44.40;23.17;;;;;;;12.23;87.42;98225.63;8260213;28;20054;-75
2022/11/04 14:38:33;;;;;;;43.50;23.13;;;;;;;12.18;87.70;98212.31;8251492;28;20093;-74
2022/11/04 14:42:48;;;;;;;44.42;22.15;;;;;;;12.15;87.87;98213.00;8243002;28;20065;-75
2022/11/04 14:46:52;;;;;;;43.28;22.15;;;;;;;12.13;88.06;98220.66;8258454;28;20046;-75
2022/11/04 14:50:55;;;;;;;60.20;30.48;;;;;;;12.09;88.26;98214.38;8344923;28;20041;-74
2022/11/04 14:55:02;;;;;;;46.22;23.20;;;;;;;12.05;88.55;98213.47;8378525;28;20096;-74
2022/11/04 14:59:05;;;;;;;44.03;22.33;;;;;;;12.03;88.81;98217.63;8336960;28;20394;-74
2022/11/04 15:03:09;;;;;;;36.55;21.38;;;;;;;11.96;89.16;98215.47;8463798;28;20724;-74
2022/11/04 15:07:23;;;;;;;41.47;21.75;;;;;;;11.89;89.46;98215.28;8468015;28;20040;-74
2022/11/04 15:15:50;;;;;;;44.78;20.70;;;;;;;11.76;89.96;98221.81;8452899;28;20055;-75
2022/11/04 15:19:53;;;;;;;33.28;17.83;;;;;;;11.72;90.27;98218.16;8467577;28;20474;-75
2022/11/04 15:23:54;;;;;;;40.35;19.98;;;;;;;11.66;90.47;98212.19;8466314;28;20047;-74
2022/11/04 15:27:56;;;;;;;38.92;20.48;;;;;;;11.60;90.71;98207.34;8440069;28;20513;-75
2022/11/04 15:32:02;;;;;;;31.95;17.95;;;;;;;11.58;90.89;98198.78;8447384;28;20036;-75
2022/11/04 15:36:04;;;;;;;32.75;17.40;;;;;;;11.54;91.25;98214.09;8418784;28;20055;-75
2022/11/04 15:40:12;;;;;;;29.98;17.15;;;;;;;11.50;91.30;98224.00;8466964;28;20085;-74
2022/11/04 15:44:26;;;;;;;29.77;16.42;;;;;;;11.44;91.62;98221.50;8437030;28;20589;-75
2022/11/04 15:48:32;;;;;;;29.35;17.38;;;;;;;11.42;91.93;98228.38;8415078;28;20051;-75
2022/11/04 15:52:33;;;;;;;35.65;18.25;;;;;;;11.38;92.05;98222.06;8450863;28;20047;-74
2022/11/04 15:56:40;;;;;;;37.05;18.92;;;;;;;11.31;92.27;98233.44;8461064;28;20044;-74
2022/11/04 16:00:42;;;;;;;38.60;21.13;;;;;;;11.28;92.52;98234.09;8454391;28;20055;-73
2022/11/04 16:04:44;;;;;;;42.00;22.58;;;;;;;11.26;92.67;98230.91;8429225;28;20541;-73
2022/11/04 16:08:59;;;;;;;47.20;26.13;;;;;;;11.19;93.19;98230.69;8425737;28;20054;-74
2022/11/04 16:13:22;;;;;;;89.13;39.60;;;;;;;11.12;93.36;98233.13;8417664;28;20047;-76
2022/11/04 16:17:24;;;;;;;193.75;75.07;;;;;;;11.11;93.35;98228.84;8315785;28;20104;-74
2022/11/04 16:21:29;;;;;;;262.75;97.90;;;;;;;11.06;93.78;98215.56;8293643;28;20049;-75
2022/11/04 16:25:34;;;;;;;277.58;100.00;;;;;;;11.03;94.04;98218.94;8324824;28;20056;-74
2022/11/04 16:29:38;;;;;;;146.18;57.55;;;;;;;10.99;94.36;98220.72;8320247;28;20542;-75
2022/11/04 16:33:38;;;;;;;504.58;153.25;;;;;;;10.95;94.61;98217.09;8303662;28;20045;-74
2022/11/04 16:37:40;;;;;;;553.83;167.48;;;;;;;10.95;94.93;98214.38;8320760;28;20042;-75
2022/11/04 16:41:40;;;;;;;205.25;69.90;;;;;;;10.95;95.03;98215.19;8322428;28;20045;-74
2022/11/04 16:45:44;;;;;;;148.25;58.20;;;;;;;10.90;95.37;98218.09;8326130;28;20446;-75
2022/11/04 16:49:46;;;;;;;320.33;116.93;;;;;;;10.91;95.74;98214.28;8324559;28;20072;-75
2022/11/04 16:53:51;;;;;;;290.70;109.50;;;;;;;10.92;95.69;98212.34;8394776;28;20048;-75
2022/11/04 16:57:59;;;;;;;187.90;75.93;;;;;;;10.88;96.05;98214.16;8453153;28;20055;-74
2022/11/04 17:02:20;;;;;;;128.43;53.10;;;;;;;10.86;96.51;98210.97;8445291;28;20658;-75
2022/11/04 17:06:21;;;;;;;66.40;32.40;;;;;;;10.84;96.42;98208.59;8437204;28;20056;-74
2022/11/04 17:10:25;;;;;;;59.55;31.17;;;;;;;10.85;96.74;98214.81;8460061;28;20051;-74
2022/11/04 17:14:26;;;;;;;58.47;28.95;;;;;;;10.82;96.90;98210.06;8435472;28;20075;-74
2022/11/04 17:18:32;;;;;;;54.00;30.23;;;;;;;10.79;97.25;98216.13;8411505;28;20055;-75
2022/11/04 17:22:33;;;;;;;53.15;28.85;;;;;;;10.82;97.36;98199.28;8449411;28;20048;-74
2022/11/04 17:26:34;;;;;;;82.35;36.58;;;;;;;10.80;97.65;98206.91;8456040;28;20044;-74
2022/11/04 17:30:36;;;;;;;141.65;52.47;;;;;;;10.78;97.80;98206.47;8442443;28;20495;-74
2022/11/04 17:34:37;;;;;;;97.32;42.42;;;;;;;10.78;97.86;98203.75;8440824;28;20044;-75
2022/11/04 17:38:38;;;;;;;77.35;34.75;;;;;;;10.77;98.03;98204.88;8394310;28;20090;-75
2022/11/04 17:46:59;;;;;;;52.85;29.48;;;;;;;10.71;98.86;98188.09;8426828;28;20043;-75
2022/11/04 17:51:01;;;;;;;70.82;35.17;;;;;;;10.73;98.85;98185.06;8456066;28;20057;-75
2022/11/04 17:55:03;;;;;;;84.38;36.90;;;;;;;10.73;99.04;98182.38;8435360;28;20044;-75
2022/11/04 17:59:05;;;;;;;100.68;43.92;;;;;;;10.72;99.04;98189.66;8455960;28;20138;-74
2022/11/04 18:03:07;;;;;;;98.75;43.60;;;;;;;10.74;99.02;98183.91;8428508;28;20048;-75
2022/11/04 18:07:08;;;;;;;113.90;46.20;;;;;;;10.73;99.20;98185.06;8428402;28;20069;-75
2022/11/04 18:11:11;;;;;;;103.82;46.35;;;;;;;10.72;99.59;98178.06;8398504;28;20051;-74
2022/11/04 18:15:15;;;;;;;77.68;40.53;;;;;;;10.71;99.72;98179.19;8427230;28;20067;-74
2022/11/04 18:19:21;;;;;;;62.40;34.03;;;;;;;10.70;100.00;98177.59;8428474;28;20514;-74
2022/11/04 18:23:23;;;;;;;97.63;48.60;;;;;;;10.70;99.84;98170.28;8428017;28;20052;-74
2022/11/04 18:27:24;;;;;;;71.53;33.33;;;;;;;10.72;99.87;98172.69;8426482;28;20063;-74
2022/11/04 18:31:30;;;;;;;69.53;34.55;;;;;;;10.72;99.85;98172.69;8428764;28;20109;-74
2022/11/04 18:35:34;;;;;;;60.83;31.00;;;;;;;10.67;100.00;98176.38;8429708;28;20040;-74
2022/11/04 18:39:37;;;;;;;58.60;31.38;;;;;;;10.68;100.00;98166.38;8440551;28;20059;-75
2022/11/04 18:43:38;;;;;;;68.43;35.83;;;;;;;10.65;100.00;98156.22;8422300;28;20036;-74
2022/11/04 18:47:48;;;;;;;66.13;35.58;;;;;;;10.63;100.00;98164.63;8429719;28;20505;-74
2022/11/04 18:51:48;;;;;;;67.20;34.15;;;;;;;10.64;100.00;98162.72;8463662;28;20052;-74
2022/11/04 18:55:49;;;;;;;70.18;34.10;;;;;;;10.62;100.00;98154.97;8449377;28;20417;-74
2022/11/04 18:59:50;;;;;;;68.35;34.33;;;;;;;10.61;100.00;98155.31;8439300;28;20043;-74
2022/11/04 19:03:54;;;;;;;74.90;36.63;;;;;;;10.61;100.00;98171.50;8456597;28;20043;-75
2022/11/04 19:07:55;;;;;;;87.65;39.40;;;;;;;10.62;100.00;98184.69;8453828;28;20058;-74
2022/11/04 19:16:18;;;;;;;;;;;;;;;10.63;100.00;98201.66;8420958;28;20056;-73
2022/11/04 19:20:22;;;;;;;65.80;31.23;;;;;;;10.61;100.00;98206.59;8436506;28;20259;-74
2022/11/04 19:24:27;;;;;;;59.85;31.48;;;;;;;10.61;100.00;98203.91;8445012;28;20450;-74
2022/11/04 19:28:28;;;;;;;61.63;32.28;;;;;;;10.57;100.00;98203.78;8419930;28;20493;-74